Time;durP1;ratioP1;P1;durP2;ratioP2;P2;SDS_P1;SDS_P2;PMS_P1;PMS_P2;Temp;Humidity;BMP_temperature;BMP_pressure;BME280_temperature;BME280_humidity;BME280_pressure;Samples;Min_cycle;Max_cycle;Signal;HPM_P1;HPM_P2
2023/01/01 00:17:01;;;;;;;65.85;12.93;;;;;;;;;;5025955;28;20596;-57
2023/01/01 00:19:35;;;;;;;80.40;14.20;;;;;;;;;;5002571;28;20071;-58
2023/01/01 00:22:02;;;;;;;79.97;13.85;;;;;;;;;;5010350;28;20049;-55
2023/01/01 00:24:49;;;;;;;86.50;13.35;;;;;;;;;;5010204;28;20439;-55
2023/01/01 00:27:23;;;;;;;79.30;14.77;;;;;;;;;;5005732;28;20057;-54
2023/01/01 00:29:50;;;;;;;70.90;14.10;;;;;;;;;;5009039;28;20049;-60
2023/01/01 00:32:24;;;;;;;81.65;13.75;;;;;;;;;;5007282;28;20049;-51
2023/01/01 00:34:51;;;;;;;87.78;14.80;;;;;;;;;;5008047;28;20072;-49
2023/01/01 00:37:18;;;;;;;81.80;14.02;;;;;;;;;;5009066;28;20125;-51
2023/01/01 00:39:52;;;;;;;78.55;14.50;;;;;;;;;;5014909;28;20085;-49
2023/01/01 00:42:19;;;;;;;94.75;15.45;;;;;;;;;;5008334;28;20058;-49
2023/01/01 00:44:53;;;;;;;69.88;14.80;;;;;;;;;;5008393;28;20160;-53
2023/01/01 00:47:20;;;;;;;77.85;13.85;;;;;;;;;;5010473;28;20045;-51
2023/01/01 00:49:47;;;;;;;81.88;15.30;;;;;;;;;;5010623;28;20140;-53
2023/01/01 00:52:21;;;;;;;94.03;16.40;;;;;;;;;;5008151;28;20053;-71
2023/01/01 00:54:48;;;;;;;85.07;16.13;;;;;;;;;;5014267;28;20092;-60
2023/01/01 00:57:22;;;;;;;80.90;15.23;;;;;;;;;;5009257;28;20053;-62
2023/01/01 00:59:49;;;;;;;90.32;15.77;;;;;;;;;;5003885;28;20054;-61
2023/01/01 01:02:23;;;;;;;95.65;17.85;;;;;;;;;;4994311;28;20564;-62
2023/01/01 01:04:50;;;;;;;87.63;16.30;;;;;;;;;;5009196;28;20081;-60
2023/01/01 01:07:18;;;;;;;82.00;18.65;;;;;;;;;;5013045;28;20070;-60
2023/01/01 01:09:52;;;;;;;100.13;20.85;;;;;;;;;;5009767;28;20049;-70
2023/01/01 01:12:19;;;;;;;114.20;22.80;;;;;;;;;;5009587;28;20058;-52
2023/01/01 01:14:53;;;;;;;125.50;26.58;;;;;;;;;;5004036;28;20060;-52
2023/01/01 01:17:33;;;;;;;130.40;26.23;;;;;;;;;;5026609;28;20053;-56
2023/01/01 01:20:07;;;;;;;125.55;26.52;;;;;;;;;;5034541;28;20084;-54
2023/01/01 01:22:34;;;;;;;122.18;27.58;;;;;;;;;;5023960;28;20069;-53
2023/01/01 01:25:02;;;;;;;144.55;29.15;;;;;;;;;;5029793;28;20061;-53
2023/01/01 01:27:35;;;;;;;142.07;29.92;;;;;;;;;;5031451;28;20671;-61
2023/01/01 01:30:02;;;;;;;152.63;32.05;;;;;;;;;;5032798;28;20759;-62
2023/01/01 01:32:29;;;;;;;149.25;31.05;;;;;;;;;;5033906;28;20122;-62
2023/01/01 01:35:03;;;;;;;166.60;32.38;;;;;;;;;;5034555;28;20447;-63
2023/01/01 01:37:37;;;;;;;193.07;33.38;;;;;;;;;;5027436;28;20144;-63
2023/01/01 01:40:05;;;;;;;203.20;35.50;;;;;;;;;;5033397;28;20045;-63
2023/01/01 01:42:32;;;;;;;157.40;33.25;;;;;;;;;;5029024;28;20045;-63
2023/01/01 01:45:06;;;;;;;160.75;32.70;;;;;;;;;;5030898;28;20063;-62
2023/01/01 01:47:39;;;;;;;169.10;33.50;;;;;;;;;;5028597;28;20053;-49
2023/01/01 01:50:12;;;;;;;174.10;32.88;;;;;;;;;;5030132;28;20057;-60
2023/01/01 01:52:41;;;;;;;150.18;33.20;;;;;;;;;;5025957;28;20061;-56
2023/01/01 01:55:15;;;;;;;167.45;34.03;;;;;;;;;;5023858;28;20057;-62
2023/01/01 01:57:42;;;;;;;203.85;37.35;;;;;;;;;;5026528;28;20092;-61
2023/01/01 02:00:16;;;;;;;159.73;34.67;;;;;;;;;;5029730;28;20063;-62
2023/01/01 02:02:48;;;;;;;159.65;34.13;;;;;;;;;;5024268;28;20077;-58
2023/01/01 02:05:23;;;;;;;155.18;33.03;;;;;;;;;;5031001;28;20054;-64
2023/01/01 02:07:51;;;;;;;157.55;33.35;;;;;;;;;;5029043;28;20631;-62
2023/01/01 02:10:19;;;;;;;150.65;31.17;;;;;;;;;;5029556;28;20053;-60
2023/01/01 02:12:52;;;;;;;123.22;29.55;;;;;;;;;;5028823;28;20049;-62
2023/01/01 02:15:21;;;;;;;126.25;30.60;;;;;;;;;;5027882;28;20135;-62
2023/01/01 02:18:01;;;;;;;141.98;30.48;;;;;;;;;;5027125;28;20057;-62
2023/01/01 02:20:32;;;;;;;150.70;33.53;;;;;;;;;;5031827;28;20063;-61
2023/01/01 02:23:06;;;;;;;165.68;32.40;;;;;;;;;;5023810;28;20432;-71
2023/01/01 02:25:56;;;;;;;180.27;33.97;;;;;;;;;;5024930;28;20057;-62
2023/01/01 02:28:43;;;;;;;150.43;30.92;;;;;;;;;;5025553;28;20169;-54
2023/01/01 02:31:14;;;;;;;170.35;33.45;;;;;;;;;;5029959;28;20083;-50
2023/01/01 02:33:51;;;;;;;165.95;32.55;;;;;;;;;;5021108;28;20055;-54
2023/01/01 02:36:19;;;;;;;171.77;34.67;;;;;;;;;;5029092;28;20059;-52
2023/01/01 02:38:55;;;;;;;154.82;34.15;;;;;;;;;;5011943;28;20051;-50
2023/01/01 02:41:31;;;;;;;138.38;30.40;;;;;;;;;;5029569;28;20582;-51
2023/01/01 02:44:05;;;;;;;128.90;28.00;;;;;;;;;;5026706;28;20108;-63
2023/01/01 02:46:32;;;;;;;138.38;31.58;;;;;;;;;;5027914;28;21531;-53
2023/01/01 02:48:59;;;;;;;139.27;31.02;;;;;;;;;;5032433;28;20143;-50
2023/01/01 02:51:56;;;;;;;140.63;31.63;;;;;;;;;;5028462;28;20053;-50
2023/01/01 02:54:36;;;;;;;161.82;32.60;;;;;;;;;;5028846;28;20042;-53
2023/01/01 02:57:09;;;;;;;143.85;33.13;;;;;;;;;;5026415;28;20057;-50
2023/01/01 03:03:00;;;;;;;138.80;32.13;;;;;;;;;;5028888;28;20532;-55
2023/01/01 03:06:21;;;;;;;141.82;33.40;;;;;;;;;;5030871;28;20053;-57
2023/01/01 03:08:30;;;;;;;174.52;35.00;;;;;;;;;;5032845;28;20044;-57
2023/01/01 03:11:07;;;;;;;146.95;25.77;;;;;;;;;;5025019;28;20044;-58
2023/01/01 03:13:39;;;;;;;179.13;34.40;;;;;;;;;;5021617;28;20066;-59
2023/01/01 03:16:12;;;;;;;;;;;;;;;;;;5029926;28;20056;-58
2023/01/01 03:18:49;;;;;;;161.30;32.25;;;;;;;;;;5027100;28;19975;-56
2023/01/01 03:21:23;;;;;;;174.95;33.63;;;;;;;;;;5026911;28;22082;-63
2023/01/01 03:23:53;;;;;;;145.35;32.72;;;;;;;;;;5029302;28;20079;-62
2023/01/01 03:26:22;;;;;;;181.02;35.15;;;;;;;;;;5027045;28;20577;-63
2023/01/01 03:28:58;;;;;;;228.40;40.80;;;;;;;;;;5023727;28;20057;-63
2023/01/01 03:31:25;;;;;;;220.70;39.50;;;;;;;;;;5032134;28;20142;-63
2023/01/01 03:34:02;;;;;;;237.32;40.72;;;;;;;;;;5030485;28;20420;-63
2023/01/01 03:36:38;;;;;;;200.57;38.08;;;;;;;;;;5031930;28;20139;-62
2023/01/01 03:39:14;;;;;;;235.13;39.22;;;;;;;;;;5032440;28;20435;-71
2023/01/01 03:41:47;;;;;;;194.32;37.45;;;;;;;;;;5032938;28;20053;-62
2023/01/01 03:44:27;;;;;;;236.77;39.60;;;;;;;;;;5026152;28;20045;-61
2023/01/01 03:46:54;;;;;;;178.93;37.45;;;;;;;;;;5031068;28;20057;-62
2023/01/01 03:49:29;;;;;;;189.98;37.75;;;;;;;;;;5036837;28;20063;-63
2023/01/01 03:51:57;;;;;;;154.30;33.42;;;;;;;;;;5029620;28;20063;-62
2023/01/01 03:54:43;;;;;;;195.90;36.03;;;;;;;;;;5032243;28;20054;-53
2023/01/01 03:57:28;;;;;;;144.10;32.15;;;;;;;;;;5032312;28;20511;-56
2023/01/01 03:59:58;;;;;;;200.30;38.85;;;;;;;;;;5025383;28;20415;-63
2023/01/01 04:02:35;;;;;;;187.60;37.03;;;;;;;;;;5017795;28;20055;-62
2023/01/01 04:05:03;;;;;;;183.48;36.70;;;;;;;;;;5024486;28;20058;-63
2023/01/01 04:07:37;;;;;;;192.75;37.15;;;;;;;;;;5038452;28;20152;-63
2023/01/01 04:10:15;;;;;;;195.02;38.03;;;;;;;;;;5027387;28;20053;-63
2023/01/01 04:12:51;;;;;;;200.05;37.08;;;;;;;;;;5028646;28;20057;-61
2023/01/01 04:15:19;;;;;;;192.55;37.65;;;;;;;;;;5027061;28;20057;-62
2023/01/01 04:17:47;;;;;;;154.18;35.30;;;;;;;;;;5031850;28;20188;-47
2023/01/01 04:20:20;;;;;;;253.05;40.90;;;;;;;;;;5029791;28;20171;-48
2023/01/01 04:22:47;;;;;;;;;;;;;;;;;;5034014;28;20508;-49
2023/01/01 04:25:21;;;;;;;276.70;41.03;;;;;;;;;;5027194;28;20015;-56
2023/01/01 04:27:48;;;;;;;244.45;40.25;;;;;;;;;;5030073;28;20472;-54
2023/01/01 04:30:15;;;;;;;276.30;42.63;;;;;;;;;;5028500;28;20048;-49
2023/01/01 04:32:49;;;;;;;230.55;39.17;;;;;;;;;;5029984;28;20057;-62
2023/01/01 04:35:16;;;;;;;292.52;44.25;;;;;;;;;;5027925;28;20144;-49
2023/01/01 04:37:44;;;;;;;339.73;47.03;;;;;;;;;;5032262;28;20067;-49
2023/01/01 04:40:18;;;;;;;240.15;40.88;;;;;;;;;;5032954;28;20412;-51
2023/01/01 04:42:45;;;;;;;246.27;40.72;;;;;;;;;;5025181;28;20055;-51
2023/01/01 04:45:19;;;;;;;210.98;37.63;;;;;;;;;;5030383;28;20148;-54
2023/01/01 04:47:46;;;;;;;277.77;42.33;;;;;;;;;;5018558;28;20053;-51
2023/01/01 04:50:13;;;;;;;180.35;34.25;;;;;;;;;;5027719;28;20130;-63
2023/01/01 04:53:00;;;;;;;258.90;40.60;;;;;;;;;;5033023;28;20049;-62
2023/01/01 04:55:27;;;;;;;274.15;42.15;;;;;;;;;;5034552;28;20136;-63
2023/01/01 04:58:01;;;;;;;356.70;44.97;;;;;;;;;;5028644;28;20439;-63
2023/01/01 05:00:28;;;;;;;339.00;45.22;;;;;;;;;;5028774;28;20052;-63
2023/01/01 05:02:55;;;;;;;262.63;39.85;;;;;;;;;;5029204;28;20521;-63
2023/01/01 05:05:29;;;;;;;266.98;39.55;;;;;;;;;;5030206;28;20122;-63
2023/01/01 05:07:56;;;;;;;344.67;46.25;;;;;;;;;;5028578;28;20057;-55
2023/01/01 05:10:30;;;;;;;233.48;37.25;;;;;;;;;;5031833;28;20052;-70
2023/01/01 05:12:57;;;;;;;339.02;44.75;;;;;;;;;;5027803;28;20586;-71
2023/01/01 05:15:24;;;;;;;313.17;44.40;;;;;;;;;;5030147;28;20148;-71
2023/01/01 05:18:11;;;;;;;322.38;42.90;;;;;;;;;;5020001;28;20053;-71
2023/01/01 05:20:45;;;;;;;207.43;37.45;;;;;;;;;;5009664;28;20300;-71
2023/01/01 05:23:19;;;;;;;260.25;40.72;;;;;;;;;;5010421;28;20064;-71
2023/01/01 05:25:46;;;;;;;323.83;42.05;;;;;;;;;;5009867;28;20064;-71
2023/01/01 05:28:13;;;;;;;355.85;45.55;;;;;;;;;;5011721;28;20061;-52
2023/01/01 05:30:47;;;;;;;405.50;48.65;;;;;;;;;;4999638;28;20402;-60
2023/01/01 05:33:14;;;;;;;383.20;46.08;;;;;;;;;;5012163;28;20049;-59
2023/01/01 05:35:52;;;;;;;358.67;42.15;;;;;;;;;;4992942;28;20501;-57
2023/01/01 05:38:19;;;;;;;314.05;43.17;;;;;;;;;;5016825;28;20088;-60
2023/01/01 05:40:53;;;;;;;415.42;46.47;;;;;;;;;;5014728;28;20073;-58
2023/01/01 05:43:21;;;;;;;266.63;38.53;;;;;;;;;;5010300;28;20046;-59
2023/01/01 05:45:48;;;;;;;636.63;53.72;;;;;;;;;;5010559;28;20144;-63
2023/01/01 05:48:22;;;;;;;1032.43;69.20;;;;;;;;;;5004048;28;20148;-63
2023/01/01 05:50:49;;;;;;;1006.60;72.05;;;;;;;;;;5009883;28;20045;-63
2023/01/01 05:53:16;;;;;;;563.20;48.45;;;;;;;;;;5008835;28;20057;-63
2023/01/01 05:55:53;;;;;;;540.15;49.83;;;;;;;;;;5006925;28;20146;-62
2023/01/01 05:58:20;;;;;;;447.88;48.47;;;;;;;;;;5011304;28;20056;-62
2023/01/01 06:00:54;;;;;;;330.63;36.90;;;;;;;;;;5008170;28;20042;-63
2023/01/01 06:03:22;;;;;;;511.52;46.92;;;;;;;;;;5003662;28;20994;-71
2023/01/01 06:05:49;;;;;;;573.45;47.25;;;;;;;;;;5007438;28;20107;-69
2023/01/01 06:08:22;;;;;;;733.97;55.55;;;;;;;;;;5006709;28;20897;-50
2023/01/01 06:10:56;;;;;;;428.10;42.42;;;;;;;;;;5012973;28;20046;-54
2023/01/01 06:13:30;;;;;;;806.50;62.88;;;;;;;;;;5009810;28;20058;-48
2023/01/01 06:15:58;;;;;;;875.50;65.03;;;;;;;;;;5010360;28;20053;-48
2023/01/01 06:18:39;;;;;;;530.38;42.28;;;;;;;;;;5020412;28;20148;-51
2023/01/01 06:21:07;;;;;;;828.95;59.72;;;;;;;;;;5025395;28;20059;-49
2023/01/01 06:23:41;;;;;;;977.95;65.57;;;;;;;;;;5014677;28;20049;-60
2023/01/01 06:26:15;;;;;;;619.42;47.63;;;;;;;;;;5030036;28;20057;-64
2023/01/01 06:28:43;;;;;;;796.95;56.28;;;;;;;;;;5031476;28;20164;-63
2023/01/01 06:31:17;;;;;;;921.97;61.97;;;;;;;;;;5028244;28;20140;-64
2023/01/01 06:33:45;;;;;;;744.20;54.78;;;;;;;;;;5026777;28;20049;-63
2023/01/01 06:36:19;;;;;;;867.13;60.13;;;;;;;;;;5024507;28;20049;-63
2023/01/01 06:38:48;;;;;;;933.17;64.65;;;;;;;;;;5031999;28;20144;-63
2023/01/01 06:41:16;;;;;;;376.45;35.13;;;;;;;;;;5025318;28;20061;-63
2023/01/01 06:43:50;;;;;;;949.75;62.28;;;;;;;;;;5030863;28;20056;-52
2023/01/01 06:46:17;;;;;;;884.63;60.58;;;;;;;;;;5027126;28;20072;-54
2023/01/01 06:48:58;;;;;;;799.85;55.55;;;;;;;;;;5029121;28;20053;-51
2023/01/01 06:51:30;;;;;;;877.65;60.50;;;;;;;;;;5025027;28;20063;-57
2023/01/01 06:54:04;;;;;;;562.78;44.95;;;;;;;;;;5024705;28;20052;-52
2023/01/01 06:56:31;;;;;;;520.00;40.85;;;;;;;;;;5024801;28;20427;-52
2023/01/01 06:58:58;;;;;;;;;;;;;;;;;;5027949;28;20046;-61
2023/01/01 07:01:34;;;;;;;573.15;38.30;;;;;;;;;;5024678;28;19960;-58
2023/01/01 07:04:03;;;;;;;915.47;59.47;;;;;;;;;;5027791;28;20056;-61
2023/01/01 07:06:31;;;;;;;689.95;47.45;;;;;;;;;;5024561;28;20475;-60
2023/01/01 07:09:06;;;;;;;914.38;58.75;;;;;;;;;;5024694;28;20065;-60
2023/01/01 07:11:34;;;;;;;521.83;43.85;;;;;;;;;;5026166;28;20131;-61
2023/01/01 07:14:01;;;;;;;653.58;47.25;;;;;;;;;;5031650;28;20134;-60
2023/01/01 07:16:35;;;;;;;628.05;46.10;;;;;;;;;;5030316;28;20044;-48
2023/01/01 07:19:09;;;;;;;590.85;44.15;;;;;;;;;;5028781;28;20159;-63
2023/01/01 07:21:44;;;;;;;489.70;40.60;;;;;;;;;;5027827;28;20140;-60
2023/01/01 07:24:12;;;;;;;491.45;38.40;;;;;;;;;;5023446;28;20060;-61
2023/01/01 07:26:40;;;;;;;606.90;42.22;;;;;;;;;;5024762;28;20059;-61
2023/01/01 07:29:13;;;;;;;581.42;39.88;;;;;;;;;;5027545;28;20052;-61
2023/01/01 07:31:41;;;;;;;714.05;43.65;;;;;;;;;;5030080;28;20123;-61
2023/01/01 07:34:18;;;;;;;804.13;55.35;;;;;;;;;;5026203;28;20140;-60
2023/01/01 07:36:45;;;;;;;792.10;55.80;;;;;;;;;;5024298;28;20175;-63
2023/01/01 07:39:12;;;;;;;687.00;46.33;;;;;;;;;;5028641;28;20076;-62
2023/01/01 07:41:46;;;;;;;701.22;49.35;;;;;;;;;;5024647;28;20053;-62
2023/01/01 07:44:13;;;;;;;678.33;48.72;;;;;;;;;;5027201;28;20369;-62
2023/01/01 07:46:47;;;;;;;529.90;45.33;;;;;;;;;;5028957;28;20137;-62
2023/01/01 07:49:14;;;;;;;429.70;36.92;;;;;;;;;;5029826;28;20493;-62
2023/01/01 07:51:41;;;;;;;610.30;47.28;;;;;;;;;;5027790;28;20049;-62
2023/01/01 07:54:15;;;;;;;652.08;48.20;;;;;;;;;;5029320;28;20044;-71
2023/01/01 07:56:42;;;;;;;583.97;48.40;;;;;;;;;;5027113;28;20057;-58
2023/01/01 07:59:16;;;;;;;411.10;35.63;;;;;;;;;;5028590;28;20103;-56
2023/01/01 08:01:46;;;;;;;705.55;50.40;;;;;;;;;;5031301;28;20053;-58
2023/01/01 08:04:13;;;;;;;772.10;53.10;;;;;;;;;;5027518;28;20054;-57
2023/01/01 08:06:47;;;;;;;515.40;42.75;;;;;;;;;;5020997;28;20419;-56
2023/01/01 08:09:14;;;;;;;602.30;46.28;;;;;;;;;;5027865;28;20049;-59
2023/01/01 08:11:50;;;;;;;535.60;41.67;;;;;;;;;;5031667;28;20049;-62
2023/01/01 08:14:17;;;;;;;318.70;31.02;;;;;;;;;;5027492;28;20045;-53
2023/01/01 08:16:44;;;;;;;346.10;30.67;;;;;;;;;;5026666;28;20057;-62
2023/01/01 08:19:25;;;;;;;626.50;47.25;;;;;;;;;;5007599;28;20144;-63
2023/01/01 08:21:52;;;;;;;609.97;41.72;;;;;;;;;;5008666;28;20050;-63
2023/01/01 08:24:26;;;;;;;334.88;34.35;;;;;;;;;;5009937;28;20145;-63
2023/01/01 08:26:53;;;;;;;325.73;35.22;;;;;;;;;;5010443;28;20056;-62
2023/01/01 08:29:21;;;;;;;387.30;34.72;;;;;;;;;;5007832;28;20505;-62
2023/01/01 08:31:54;;;;;;;485.90;39.40;;;;;;;;;;5011479;28;20495;-62
2023/01/01 08:34:21;;;;;;;482.58;40.35;;;;;;;;;;5012199;28;20057;-61
2023/01/01 08:36:55;;;;;;;724.00;50.10;;;;;;;;;;5005712;28;20594;-56
2023/01/01 08:39:22;;;;;;;;;;;;;;;;;;5004170;28;20424;-56
2023/01/01 08:41:50;;;;;;;432.75;33.92;;;;;;;;;;5010680;28;20020;-54
2023/01/01 08:44:23;;;;;;;274.52;29.38;;;;;;;;;;5016982;28;20049;-57
2023/01/01 08:46:52;;;;;;;107.25;22.63;;;;;;;;;;5016490;28;20049;-56
2023/01/01 08:49:26;;;;;;;110.13;23.85;;;;;;;;;;5013564;28;20057;-71
2023/01/01 08:51:54;;;;;;;227.70;29.65;;;;;;;;;;5015486;28;20053;-71
2023/01/01 08:54:21;;;;;;;161.00;28.48;;;;;;;;;;5010180;28;20929;-72
2023/01/01 08:56:54;;;;;;;151.02;25.55;;;;;;;;;;5005362;28;20045;-71
2023/01/01 08:59:21;;;;;;;57.97;17.08;;;;;;;;;;5013044;28;20056;-71
2023/01/01 09:01:55;;;;;;;86.13;21.08;;;;;;;;;;5007540;28;20996;-72
2023/01/01 09:04:22;;;;;;;;;;;;;;;;;;5005411;28;20178;-72
2023/01/01 09:06:56;;;;;;;47.70;15.63;;;;;;;;;;5007115;28;19928;-60
2023/01/01 09:09:23;;;;;;;56.03;16.08;;;;;;;;;;5005231;28;20140;-59
2023/01/01 09:12:02;;;;;;;52.50;16.58;;;;;;;;;;5009848;28;20057;-63
2023/01/01 09:14:36;;;;;;;52.95;15.90;;;;;;;;;;5000103;28;20054;-62
2023/01/01 09:17:03;;;;;;;52.60;14.07;;;;;;;;;;5009357;28;22320;-62
2023/01/01 09:19:44;;;;;;;77.05;17.30;;;;;;;;;;5026270;28;20053;-62
2023/01/01 09:22:11;;;;;;;71.10;16.00;;;;;;;;;;5025875;28;20060;-62
2023/01/01 09:24:45;;;;;;;44.47;14.80;;;;;;;;;;5030147;28;20055;-62
2023/01/01 09:27:12;;;;;;;62.30;16.27;;;;;;;;;;5027233;28;20510;-62
2023/01/01 09:29:39;;;;;;;43.03;13.77;;;;;;;;;;5024880;28;20056;-53
2023/01/01 09:32:13;;;;;;;44.35;12.95;;;;;;;;;;5030273;28;20045;-50
2023/01/01 09:34:40;;;;;;;35.65;12.40;;;;;;;;;;4996913;28;20064;-52
2023/01/01 09:37:18;;;;;;;34.38;11.30;;;;;;;;;;4979510;28;21226;-50
2023/01/01 09:39:45;;;;;;;37.40;11.93;;;;;;;;;;4980217;28;20609;-50
2023/01/01 09:42:48;;;;;;;34.38;11.48;;;;;;;;;;4972770;28;20962;-48
2023/01/01 09:45:28;;;;;;;36.67;10.95;;;;;;;;;;4908300;29;20060;-62
2023/01/01 09:47:57;;;;;;;39.85;10.98;;;;;;;;;;4971159;28;20502;-60
2023/01/01 09:50:37;;;;;;;39.80;11.43;;;;;;;;;;4990387;28;20060;-58
2023/01/01 09:53:12;;;;;;;36.85;11.40;;;;;;;;;;4985747;28;20054;-58
2023/01/01 09:55:53;;;;;;;47.35;12.30;;;;;;;;;;4986172;28;20144;-59
2023/01/01 09:58:23;;;;;;;40.72;11.70;;;;;;;;;;4981182;28;20050;-58
2023/01/01 10:01:00;;;;;;;40.05;11.18;;;;;;;;;;4981786;28;20666;-57
2023/01/01 10:03:54;;;;;;;42.58;11.85;;;;;;;;;;4983427;28;20078;-58
2023/01/01 10:06:30;;;;;;;34.10;9.10;;;;;;;;;;4952193;28;20066;-48
2023/01/01 10:09:00;;;;;;;31.40;8.50;;;;;;;;;;4985902;28;20046;-52
2023/01/01 10:11:36;;;;;;;37.63;8.98;;;;;;;;;;4989274;28;20164;-53
2023/01/01 10:14:24;;;;;;;30.70;8.02;;;;;;;;;;4984033;28;20484;-49
2023/01/01 10:17:01;;;;;;;34.78;8.15;;;;;;;;;;4987977;28;20061;-49
2023/01/01 10:19:44;;;;;;;32.33;8.30;;;;;;;;;;4970982;28;20057;-53
2023/01/01 10:22:23;;;;;;;29.67;7.05;;;;;;;;;;4967440;28;20050;-62
2023/01/01 10:24:50;;;;;;;31.67;7.53;;;;;;;;;;4970744;28;20050;-55
2023/01/01 10:27:24;;;;;;;22.92;6.65;;;;;;;;;;4954058;28;20145;-58
2023/01/01 10:29:59;;;;;;;36.75;7.35;;;;;;;;;;4973903;28;20089;-60
2023/01/01 10:32:33;;;;;;;27.33;6.80;;;;;;;;;;4975766;28;20042;-59
2023/01/01 10:35:14;;;;;;;26.70;7.38;;;;;;;;;;4968276;28;20733;-59
2023/01/01 10:37:41;;;;;;;29.70;7.15;;;;;;;;;;4962947;28;20050;-59
2023/01/01 10:40:23;;;;;;;35.10;6.97;;;;;;;;;;4964046;28;20912;-51
2023/01/01 10:42:51;;;;;;;39.97;6.57;;;;;;;;;;4970660;28;20046;-62
2023/01/01 10:45:35;;;;;;;25.30;6.63;;;;;;;;;;4966660;28;20056;-62
2023/01/01 10:48:14;;;;;;;27.33;6.15;;;;;;;;;;4969668;28;20062;-61
2023/01/01 10:50:46;;;;;;;25.15;5.95;;;;;;;;;;4974232;28;20257;-63
2023/01/01 10:53:21;;;;;;;32.00;6.93;;;;;;;;;;4965861;28;20055;-63
2023/01/01 10:55:58;;;;;;;32.20;7.30;;;;;;;;;;4964625;28;20807;-63
2023/01/01 10:58:37;;;;;;;27.38;6.93;;;;;;;;;;4963265;28;20057;-48
2023/01/01 11:01:05;;;;;;;28.70;6.18;;;;;;;;;;4949888;28;20078;-58
2023/01/01 11:04:24;;;;;;;36.60;7.75;;;;;;;;;;4963323;28;20633;-58
2023/01/01 11:06:58;;;;;;;28.67;6.15;;;;;;;;;;4949611;28;20058;-54
2023/01/01 11:09:37;;;;;;;29.90;7.00;;;;;;;;;;4963559;28;20084;-55
2023/01/01 11:12:16;;;;;;;32.03;7.15;;;;;;;;;;4970156;28;20054;-57
2023/01/01 11:15:20;;;;;;;30.65;7.30;;;;;;;;;;4963958;28;20058;-60
2023/01/01 11:17:47;;;;;;;33.70;6.63;;;;;;;;;;4969540;28;20101;-61
2023/01/01 11:20:28;;;;;;;21.02;5.72;;;;;;;;;;4970154;28;20103;-59
2023/01/01 11:22:56;;;;;;;25.52;5.35;;;;;;;;;;4965783;28;20058;-59
2023/01/01 11:25:33;;;;;;;26.13;6.95;;;;;;;;;;4970291;28;20443;-59
2023/01/01 11:28:15;;;;;;;32.75;6.22;;;;;;;;;;4967198;28;20061;-58
2023/01/01 11:30:58;;;;;;;29.10;5.75;;;;;;;;;;4971301;28;20047;-55
2023/01/01 11:33:26;;;;;;;27.83;5.57;;;;;;;;;;4972564;28;20054;-56
2023/01/01 11:36:02;;;;;;;28.70;6.50;;;;;;;;;;4969091;28;21876;-70
2023/01/01 11:38:29;;;;;;;23.45;5.60;;;;;;;;;;4970104;28;20061;-54
2023/01/01 11:41:05;;;;;;;26.10;5.65;;;;;;;;;;4968250;28;20053;-50
2023/01/01 11:43:40;;;;;;;42.45;6.90;;;;;;;;;;4964585;28;20046;-49
2023/01/01 11:46:22;;;;;;;25.63;5.82;;;;;;;;;;4965699;28;20082;-48
2023/01/01 11:48:50;;;;;;;29.25;5.82;;;;;;;;;;4963746;28;20426;-52
2023/01/01 11:51:31;;;;;;;30.48;5.75;;;;;;;;;;4968246;28;20520;-51
2023/01/01 11:54:09;;;;;;;32.08;5.95;;;;;;;;;;4970890;28;20054;-59
2023/01/01 11:56:43;;;;;;;35.53;6.50;;;;;;;;;;4975114;28;20186;-59
2023/01/01 11:59:14;;;;;;;29.08;6.13;;;;;;;;;;4967796;28;20054;-61
2023/01/01 12:01:46;;;;;;;32.70;5.32;;;;;;;;;;4971264;28;20185;-61
2023/01/01 12:04:20;;;;;;;26.50;5.47;;;;;;;;;;4970850;28;20064;-61
2023/01/01 12:06:53;;;;;;;29.70;6.18;;;;;;;;;;4967495;28;20068;-61
2023/01/01 12:09:30;;;;;;;31.75;6.97;;;;;;;;;;4972980;28;20434;-61
2023/01/01 12:12:03;;;;;;;32.53;6.80;;;;;;;;;;4975645;28;20495;-61
2023/01/01 12:14:44;;;;;;;24.52;6.50;;;;;;;;;;4971970;28;20054;-61
2023/01/01 12:17:34;;;;;;;29.08;6.03;;;;;;;;;;4972325;28;20129;-62
2023/01/01 12:20:26;;;;;;;30.13;6.20;;;;;;;;;;4970066;28;20050;-63
2023/01/01 12:22:57;;;;;;;27.65;5.97;;;;;;;;;;4970550;28;20661;-62
2023/01/01 12:25:42;;;;;;;29.65;6.70;;;;;;;;;;4972600;28;20055;-62
2023/01/01 12:28:09;;;;;;;31.00;10.30;;;;;;;;;;4967061;28;20149;-61
2023/01/01 12:30:49;;;;;;;48.75;16.85;;;;;;;;;;4970687;28;20054;-51
2023/01/01 12:33:20;;;;;;;55.75;19.75;;;;;;;;;;4967901;28;20082;-60
2023/01/01 12:35:57;;;;;;;56.03;22.05;;;;;;;;;;4965585;28;20433;-60
2023/01/01 12:38:45;;;;;;;64.07;27.42;;;;;;;;;;4968235;28;20055;-61
2023/01/01 12:41:50;;;;;;;81.72;33.33;;;;;;;;;;4956038;28;21097;-61
2023/01/01 12:44:18;;;;;;;;;;;;;;;;;;4949646;28;20133;-61
2023/01/01 12:47:04;;;;;;;55.80;19.73;;;;;;;;;;4972879;28;20016;-61
2023/01/01 12:49:47;;;;;;;65.75;27.63;;;;;;;;;;4974578;28;20064;-61
2023/01/01 12:52:36;;;;;;;58.53;24.60;;;;;;;;;;4976790;28;20057;-58
2023/01/01 12:55:09;;;;;;;34.17;13.77;;;;;;;;;;4975819;28;20046;-58
2023/01/01 12:57:42;;;;;;;67.32;28.45;;;;;;;;;;4969847;28;20134;-57
2023/01/01 13:00:13;;;;;;;28.13;11.85;;;;;;;;;;4978983;28;20055;-60
2023/01/01 13:02:47;;;;;;;15.65;7.60;;;;;;;;;;4977003;28;20732;-57
2023/01/01 13:05:36;;;;;;;18.15;6.40;;;;;;;;;;4973598;28;20139;-59
2023/01/01 13:08:04;;;;;;;30.63;9.65;;;;;;;;;;4972457;28;20082;-62
2023/01/01 13:10:39;;;;;;;43.75;16.10;;;;;;;;;;4975697;28;21129;-49
2023/01/01 13:13:06;;;;;;;35.35;14.13;;;;;;;;;;4969740;28;20866;-50
2023/01/01 13:15:40;;;;;;;33.70;13.82;;;;;;;;;;4971379;28;20062;-50
2023/01/01 13:18:13;;;;;;;27.48;9.05;;;;;;;;;;4976219;28;20054;-49
2023/01/01 13:20:55;;;;;;;15.27;6.03;;;;;;;;;;4969665;28;20072;-48
2023/01/01 13:23:28;;;;;;;20.10;6.32;;;;;;;;;;4969192;28;20054;-50
2023/01/01 13:26:16;;;;;;;15.68;5.45;;;;;;;;;;4968291;28;20076;-53
2023/01/01 13:29:04;;;;;;;9.82;4.25;;;;;;;;;;4967140;28;20081;-61
2023/01/01 13:31:37;;;;;;;12.07;5.10;;;;;;;;;;4970811;28;20428;-61
2023/01/01 13:34:24;;;;;;;12.70;4.18;;;;;;;;;;4969948;28;20108;-61
2023/01/01 13:37:10;;;;;;;11.85;5.35;;;;;;;;;;4960494;28;20058;-59
2023/01/01 13:39:57;;;;;;;13.82;4.18;;;;;;;;;;4964656;28;20064;-61
2023/01/01 13:42:42;;;;;;;12.60;4.70;;;;;;;;;;4967312;28;20050;-61
2023/01/01 13:45:28;;;;;;;11.07;4.03;;;;;;;;;;4970317;28;20062;-69
2023/01/01 13:48:22;;;;;;;8.98;3.83;;;;;;;;;;4974220;28;20069;-61
2023/01/01 13:51:02;;;;;;;12.38;4.25;;;;;;;;;;4970465;28;20181;-61
2023/01/01 13:53:48;;;;;;;12.40;3.63;;;;;;;;;;4964410;28;20054;-62
2023/01/01 13:56:25;;;;;;;10.25;4.00;;;;;;;;;;4968101;28;20057;-61
2023/01/01 13:59:06;;;;;;;15.20;4.38;;;;;;;;;;4968785;28;20145;-61
2023/01/01 14:01:42;;;;;;;9.73;3.63;;;;;;;;;;4971994;28;20157;-58
2023/01/01 14:04:26;;;;;;;13.02;3.95;;;;;;;;;;4969437;28;20478;-49
2023/01/01 14:06:55;;;;;;;9.32;3.55;;;;;;;;;;4963828;28;20141;-60
2023/01/01 14:09:48;;;;;;;8.38;3.10;;;;;;;;;;4966011;28;20799;-62
2023/01/01 14:12:19;;;;;;;13.48;4.25;;;;;;;;;;4960880;28;20413;-60
2023/01/01 14:14:53;;;;;;;;;;;;;;;;;;4966878;28;20058;-62
2023/01/01 14:17:21;;;;;;;10.93;3.83;;;;;;;;;;4968865;28;19985;-62
2023/01/01 14:20:01;;;;;;;10.50;3.75;;;;;;;;;;4973077;28;20050;-60
2023/01/01 14:22:28;;;;;;;8.48;4.15;;;;;;;;;;4970348;28;20145;-70
2023/01/01 14:25:02;;;;;;;16.85;4.47;;;;;;;;;;4968599;28;20720;-70
2023/01/01 14:27:35;;;;;;;10.98;4.25;;;;;;;;;;4965627;28;20057;-70
2023/01/01 14:30:16;;;;;;;9.27;4.00;;;;;;;;;;4969803;28;20062;-67
2023/01/01 14:32:44;;;;;;;9.20;3.83;;;;;;;;;;4967800;28;20513;-70
2023/01/01 14:35:17;;;;;;;11.50;4.32;;;;;;;;;;4970799;28;20054;-69
2023/01/01 14:37:51;;;;;;;8.98;4.00;;;;;;;;;;4965978;28;20089;-69
2023/01/01 14:40:29;;;;;;;8.63;3.67;;;;;;;;;;4972289;28;20057;-64
2023/01/01 14:43:06;;;;;;;8.70;3.60;;;;;;;;;;4968378;28;20142;-49
2023/01/01 14:45:42;;;;;;;12.07;3.45;;;;;;;;;;4972011;28;20056;-51
2023/01/01 14:48:18;;;;;;;18.27;4.88;;;;;;;;;;4968961;28;20101;-50
2023/01/01 14:50:47;;;;;;;14.75;4.75;;;;;;;;;;4968121;28;20577;-49
2023/01/01 14:53:20;;;;;;;13.40;4.45;;;;;;;;;;4968101;28;20046;-51
2023/01/01 14:55:53;;;;;;;26.83;5.00;;;;;;;;;;4958615;28;20051;-53
2023/01/01 14:58:26;;;;;;;10.63;4.05;;;;;;;;;;4967018;28;20485;-50
2023/01/01 15:01:13;;;;;;;16.17;5.72;;;;;;;;;;4964224;28;20410;-69
2023/01/01 15:03:40;;;;;;;18.33;6.43;;;;;;;;;;4962838;28;20062;-70
2023/01/01 15:06:17;;;;;;;15.07;6.45;;;;;;;;;;4968530;28;20060;-70
2023/01/01 15:08:49;;;;;;;23.42;8.68;;;;;;;;;;4961478;28;20056;-70
2023/01/01 15:11:22;;;;;;;26.90;8.30;;;;;;;;;;4951136;28;20069;-70
2023/01/01 15:13:59;;;;;;;15.10;6.78;;;;;;;;;;4966916;28;20046;-70